sensor_id;sensor_type;location;lat;lon;timestamp;P1;durP1;ratioP1;P2;durP2;ratioP2
27145;SDS011;17980;51.744;7.190;2023-05-08T00:01:56;12.90;;;11.70;;
27145;SDS011;17980;51.744;7.190;2023-05-08T00:04:24;12.70;;;11.50;;
27145;SDS011;17980;51.744;7.190;2023-05-08T00:07:00;13.00;;;11.90;;
27145;SDS011;17980;51.744;7.190;2023-05-08T00:09:28;12.90;;;11.73;;
27145;SDS011;17980;51.744;7.190;2023-05-08T00:11:55;13.03;;;11.93;;
27145;SDS011;17980;51.744;7.190;2023-05-08T00:14:22;13.60;;;11.87;;
27145;SDS011;17980;51.744;7.190;2023-05-08T00:16:59;12.43;;;11.43;;
27145;SDS011;17980;51.744;7.190;2023-05-08T00:19:27;12.63;;;11.53;;
27145;SDS011;17980;51.744;7.190;2023-05-08T00:21:54;12.70;;;11.37;;
27145;SDS011;17980;51.744;7.190;2023-05-08T00:24:22;12.53;;;11.43;;
27145;SDS011;17980;51.744;7.190;2023-05-08T00:26:58;12.80;;;11.80;;
27145;SDS011;17980;51.744;7.190;2023-05-08T00:29:26;13.67;;;12.40;;
27145;SDS011;17980;51.744;7.190;2023-05-08T00:32:03;12.07;;;10.93;;
27145;SDS011;17980;51.744;7.190;2023-05-08T00:34:30;11.33;;;10.37;;
27145;SDS011;17980;51.744;7.190;2023-05-08T00:37:13;12.97;;;11.80;;
27145;SDS011;17980;51.744;7.190;2023-05-08T00:39:40;12.10;;;11.10;;
27145;SDS011;17980;51.744;7.190;2023-05-08T00:42:08;12.53;;;11.53;;
27145;SDS011;17980;51.744;7.190;2023-05-08T00:44:35;12.60;;;11.63;;
27145;SDS011;17980;51.744;7.190;2023-05-08T00:47:12;12.87;;;11.07;;
27145;SDS011;17980;51.744;7.190;2023-05-08T00:49:39;11.20;;;10.30;;
27145;SDS011;17980;51.744;7.190;2023-05-08T00:52:16;11.73;;;10.73;;
27145;SDS011;17980;51.744;7.190;2023-05-08T00:54:44;11.57;;;10.47;;
27145;SDS011;17980;51.744;7.190;2023-05-08T00:57:22;10.77;;;9.87;;
27145;SDS011;17980;51.744;7.190;2023-05-08T00:59:50;11.60;;;10.50;;
27145;SDS011;17980;51.744;7.190;2023-05-08T01:02:27;10.47;;;9.60;;
27145;SDS011;17980;51.744;7.190;2023-05-08T01:04:56;10.30;;;9.50;;
27145;SDS011;17980;51.744;7.190;2023-05-08T01:07:33;11.37;;;10.47;;
27145;SDS011;17980;51.744;7.190;2023-05-08T01:10:01;10.73;;;9.93;;
27145;SDS011;17980;51.744;7.190;2023-05-08T01:12:29;11.57;;;10.47;;
27145;SDS011;17980;51.744;7.190;2023-05-08T01:15:10;10.63;;;9.83;;
27145;SDS011;17980;51.744;7.190;2023-05-08T01:17:44;10.77;;;9.80;;
27145;SDS011;17980;51.744;7.190;2023-05-08T01:20:27;10.07;;;9.27;;
27145;SDS011;17980;51.744;7.190;2023-05-08T01:35:22;9.50;;;8.73;;
27145;SDS011;17980;51.744;7.190;2023-05-08T01:37:54;11.00;;;10.20;;
27145;SDS011;17980;51.744;7.190;2023-05-08T01:40:34;10.30;;;9.50;;
27145;SDS011;17980;51.744;7.190;2023-05-08T01:43:09;10.27;;;9.37;;
27145;SDS011;17980;51.744;7.190;2023-05-08T01:45:43;11.13;;;10.13;;
27145;SDS011;17980;51.744;7.190;2023-05-08T01:48:21;10.37;;;9.57;;
27145;SDS011;17980;51.744;7.190;2023-05-08T01:50:54;10.67;;;9.77;;
27145;SDS011;17980;51.744;7.190;2023-05-08T01:53:32;10.97;;;9.90;;
27145;SDS011;17980;51.744;7.190;2023-05-08T01:56:04;10.63;;;9.77;;
27145;SDS011;17980;51.744;7.190;2023-05-08T01:58:36;11.07;;;10.00;;
27145;SDS011;17980;51.744;7.190;2023-05-08T02:03:40;10.03;;;9.33;;
27145;SDS011;17980;51.744;7.190;2023-05-08T02:06:08;10.87;;;9.97;;
27145;SDS011;17980;51.744;7.190;2023-05-08T02:08:45;9.90;;;8.97;;
27145;SDS011;17980;51.744;7.190;2023-05-08T02:13:49;11.03;;;10.03;;
27145;SDS011;17980;51.744;7.190;2023-05-08T02:16:17;10.37;;;9.33;;
27145;SDS011;17980;51.744;7.190;2023-05-08T02:18:55;11.23;;;10.23;;
27145;SDS011;17980;51.744;7.190;2023-05-08T02:21:24;9.93;;;9.20;;
27145;SDS011;17980;51.744;7.190;2023-05-08T02:23:53;10.63;;;9.73;;
27145;SDS011;17980;51.744;7.190;2023-05-08T02:26:32;10.57;;;9.67;;
27145;SDS011;17980;51.744;7.190;2023-05-08T02:29:01;10.33;;;9.53;;
27145;SDS011;17980;51.744;7.190;2023-05-08T02:31:29;10.17;;;9.37;;
27145;SDS011;17980;51.744;7.190;2023-05-08T02:34:06;10.30;;;9.50;;
27145;SDS011;17980;51.744;7.190;2023-05-08T02:36:35;10.53;;;9.53;;
27145;SDS011;17980;51.744;7.190;2023-05-08T02:39:04;10.43;;;9.53;;
27145;SDS011;17980;51.744;7.190;2023-05-08T02:41:33;11.20;;;10.20;;
27145;SDS011;17980;51.744;7.190;2023-05-08T02:44:11;10.50;;;9.47;;
27145;SDS011;17980;51.744;7.190;2023-05-08T02:46:40;10.70;;;9.83;;
27145;SDS011;17980;51.744;7.190;2023-05-08T02:49:23;12.63;;;9.73;;
27145;SDS011;17980;51.744;7.190;2023-05-08T02:51:53;11.37;;;10.33;;
27145;SDS011;17980;51.744;7.190;2023-05-08T02:54:24;10.47;;;9.57;;
27145;SDS011;17980;51.744;7.190;2023-05-08T02:57:05;11.20;;;10.20;;
27145;SDS011;17980;51.744;7.190;2023-05-08T02:59:36;12.90;;;9.63;;
27145;SDS011;17980;51.744;7.190;2023-05-08T03:02:07;10.07;;;9.23;;
27145;SDS011;17980;51.744;7.190;2023-05-08T03:04:46;10.67;;;9.67;;
27145;SDS011;17980;51.744;7.190;2023-05-08T03:07:16;11.30;;;10.30;;
27145;SDS011;17980;51.744;7.190;2023-05-08T03:09:56;11.17;;;10.17;;
27145;SDS011;17980;51.744;7.190;2023-05-08T03:12:26;11.03;;;10.03;;
27145;SDS011;17980;51.744;7.190;2023-05-08T03:14:58;11.20;;;10.30;;
27145;SDS011;17980;51.744;7.190;2023-05-08T03:17:28;10.83;;;9.77;;
27145;SDS011;17980;51.744;7.190;2023-05-08T03:19:59;12.03;;;10.20;;
27145;SDS011;17980;51.744;7.190;2023-05-08T03:22:30;10.80;;;9.93;;
27145;SDS011;17980;51.744;7.190;2023-05-08T03:25:00;10.83;;;9.83;;
27145;SDS011;17980;51.744;7.190;2023-05-08T03:27:38;11.03;;;10.10;;
27145;SDS011;17980;51.744;7.190;2023-05-08T03:30:08;11.33;;;10.33;;
27145;SDS011;17980;51.744;7.190;2023-05-08T03:32:37;11.17;;;10.27;;
27145;SDS011;17980;51.744;7.190;2023-05-08T03:35:05;12.77;;;10.67;;
27145;SDS011;17980;51.744;7.190;2023-05-08T03:37:43;12.43;;;10.97;;
27145;SDS011;17980;51.744;7.190;2023-05-08T03:40:11;11.30;;;10.43;;
27145;SDS011;17980;51.744;7.190;2023-05-08T03:42:38;10.93;;;10.13;;
27145;SDS011;17980;51.744;7.190;2023-05-08T03:45:15;11.67;;;10.50;;
27145;SDS011;17980;51.744;7.190;2023-05-08T03:47:43;11.17;;;10.17;;
27145;SDS011;17980;51.744;7.190;2023-05-08T03:50:20;11.50;;;10.30;;
27145;SDS011;17980;51.744;7.190;2023-05-08T03:52:48;11.67;;;10.57;;
27145;SDS011;17980;51.744;7.190;2023-05-08T03:55:17;12.07;;;10.97;;
27145;SDS011;17980;51.744;7.190;2023-05-08T03:57:55;12.93;;;11.60;;
27145;SDS011;17980;51.744;7.190;2023-05-08T04:00:28;12.73;;;11.63;;
27145;SDS011;17980;51.744;7.190;2023-05-08T04:03:09;12.47;;;11.40;;
27145;SDS011;17980;51.744;7.190;2023-05-08T04:05:42;12.50;;;11.40;;
27145;SDS011;17980;51.744;7.190;2023-05-08T04:08:16;12.27;;;11.27;;
27145;SDS011;17980;51.744;7.190;2023-05-08T04:10:56;12.20;;;11.10;;
27145;SDS011;17980;51.744;7.190;2023-05-08T04:13:27;12.10;;;10.90;;
27145;SDS011;17980;51.744;7.190;2023-05-08T04:15:59;12.97;;;11.87;;
27145;SDS011;17980;51.744;7.190;2023-05-08T04:18:43;12.03;;;10.93;;
27145;SDS011;17980;51.744;7.190;2023-05-08T04:21:14;12.87;;;11.77;;
27145;SDS011;17980;51.744;7.190;2023-05-08T04:23:44;12.33;;;11.33;;
27145;SDS011;17980;51.744;7.190;2023-05-08T04:26:13;13.07;;;11.90;;
27145;SDS011;17980;51.744;7.190;2023-05-08T04:28:52;13.23;;;12.10;;
27145;SDS011;17980;51.744;7.190;2023-05-08T04:31:20;13.23;;;12.03;;
27145;SDS011;17980;51.744;7.190;2023-05-08T04:33:49;12.70;;;11.60;;
27145;SDS011;17980;51.744;7.190;2023-05-08T04:36:16;11.83;;;10.87;;
27145;SDS011;17980;51.744;7.190;2023-05-08T04:38:53;12.20;;;11.20;;
27145;SDS011;17980;51.744;7.190;2023-05-08T04:41:20;12.50;;;11.40;;
27145;SDS011;17980;51.744;7.190;2023-05-08T04:43:48;13.43;;;12.30;;
27145;SDS011;17980;51.744;7.190;2023-05-08T04:46:15;11.63;;;10.43;;
27145;SDS011;17980;51.744;7.190;2023-05-08T04:48:58;11.60;;;10.60;;
27145;SDS011;17980;51.744;7.190;2023-05-08T04:51:25;10.93;;;10.03;;
27145;SDS011;17980;51.744;7.190;2023-05-08T04:53:54;11.17;;;10.27;;
27145;SDS011;17980;51.744;7.190;2023-05-08T04:56:21;11.23;;;10.13;;
27145;SDS011;17980;51.744;7.190;2023-05-08T04:58:58;12.20;;;11.07;;
27145;SDS011;17980;51.744;7.190;2023-05-08T05:01:25;11.77;;;10.77;;
27145;SDS011;17980;51.744;7.190;2023-05-08T05:03:52;12.10;;;11.00;;
27145;SDS011;17980;51.744;7.190;2023-05-08T05:06:19;11.47;;;10.43;;
27145;SDS011;17980;51.744;7.190;2023-05-08T05:08:56;12.40;;;11.13;;
27145;SDS011;17980;51.744;7.190;2023-05-08T05:14:00;11.70;;;10.07;;
27145;SDS011;17980;51.744;7.190;2023-05-08T05:19:10;11.03;;;10.13;;
27145;SDS011;17980;51.744;7.190;2023-05-08T05:21:37;11.70;;;10.70;;
27145;SDS011;17980;51.744;7.190;2023-05-08T05:24:14;12.67;;;11.47;;
27145;SDS011;17980;51.744;7.190;2023-05-08T05:26:41;11.23;;;10.23;;
27145;SDS011;17980;51.744;7.190;2023-05-08T05:29:08;11.90;;;10.77;;
27145;SDS011;17980;51.744;7.190;2023-05-08T05:31:45;11.23;;;10.27;;
27145;SDS011;17980;51.744;7.190;2023-05-08T05:34:12;10.87;;;9.87;;
27145;SDS011;17980;51.744;7.190;2023-05-08T05:36:49;10.17;;;9.37;;
27145;SDS011;17980;51.744;7.190;2023-05-08T05:39:16;10.83;;;9.80;;
27145;SDS011;17980;51.744;7.190;2023-05-08T05:41:53;10.73;;;9.67;;
27145;SDS011;17980;51.744;7.190;2023-05-08T05:44:20;9.87;;;8.80;;
27145;SDS011;17980;51.744;7.190;2023-05-08T05:47:01;10.90;;;9.83;;
27145;SDS011;17980;51.744;7.190;2023-05-08T05:49:29;10.23;;;9.23;;
27145;SDS011;17980;51.744;7.190;2023-05-08T05:51:57;10.83;;;9.93;;
27145;SDS011;17980;51.744;7.190;2023-05-08T05:54:39;10.50;;;9.60;;
27145;SDS011;17980;51.744;7.190;2023-05-08T05:57:07;10.73;;;9.83;;
27145;SDS011;17980;51.744;7.190;2023-05-08T05:59:34;11.60;;;10.40;;
27145;SDS011;17980;51.744;7.190;2023-05-08T06:02:02;11.17;;;10.27;;
27145;SDS011;17980;51.744;7.190;2023-05-08T06:04:38;12.07;;;10.77;;
27145;SDS011;17980;51.744;7.190;2023-05-08T06:07:06;10.30;;;9.30;;
27145;SDS011;17980;51.744;7.190;2023-05-08T06:09:33;10.87;;;9.80;;
27145;SDS011;17980;51.744;7.190;2023-05-08T06:12:01;10.97;;;9.90;;
27145;SDS011;17980;51.744;7.190;2023-05-08T06:14:44;10.93;;;10.03;;
27145;SDS011;17980;51.744;7.190;2023-05-08T06:17:11;11.33;;;10.33;;
27145;SDS011;17980;51.744;7.190;2023-05-08T06:19:38;10.90;;;9.80;;
27145;SDS011;17980;51.744;7.190;2023-05-08T06:22:06;11.27;;;10.13;;
27145;SDS011;17980;51.744;7.190;2023-05-08T06:24:42;10.37;;;9.17;;
27145;SDS011;17980;51.744;7.190;2023-05-08T06:27:10;11.07;;;9.67;;
27145;SDS011;17980;51.744;7.190;2023-05-08T06:29:37;11.13;;;10.13;;
27145;SDS011;17980;51.744;7.190;2023-05-08T06:32:05;10.37;;;9.47;;
27145;SDS011;17980;51.744;7.190;2023-05-08T06:34:42;10.43;;;9.43;;
27145;SDS011;17980;51.744;7.190;2023-05-08T06:37:09;10.50;;;9.50;;
27145;SDS011;17980;51.744;7.190;2023-05-08T06:39:39;12.10;;;10.97;;
27145;SDS011;17980;51.744;7.190;2023-05-08T06:42:06;10.93;;;10.03;;
27145;SDS011;17980;51.744;7.190;2023-05-08T06:44:43;10.87;;;9.87;;
27145;SDS011;17980;51.744;7.190;2023-05-08T06:47:10;17.80;;;9.50;;
27145;SDS011;17980;51.744;7.190;2023-05-08T06:49:37;10.43;;;9.53;;
27145;SDS011;17980;51.744;7.190;2023-05-08T06:52:04;10.20;;;9.40;;
27145;SDS011;17980;51.744;7.190;2023-05-08T06:54:41;10.60;;;9.67;;
27145;SDS011;17980;51.744;7.190;2023-05-08T06:57:08;10.70;;;9.60;;
27145;SDS011;17980;51.744;7.190;2023-05-08T06:59:36;11.30;;;10.27;;
27145;SDS011;17980;51.744;7.190;2023-05-08T07:02:03;10.80;;;9.90;;
27145;SDS011;17980;51.744;7.190;2023-05-08T07:04:40;11.57;;;10.57;;
27145;SDS011;17980;51.744;7.190;2023-05-08T07:07:08;11.60;;;10.53;;
27145;SDS011;17980;51.744;7.190;2023-05-08T07:09:36;11.00;;;10.00;;
27145;SDS011;17980;51.744;7.190;2023-05-08T07:12:04;11.50;;;10.50;;
27145;SDS011;17980;51.744;7.190;2023-05-08T07:14:41;11.90;;;10.60;;
27145;SDS011;17980;51.744;7.190;2023-05-08T07:17:08;11.83;;;10.67;;
27145;SDS011;17980;51.744;7.190;2023-05-08T07:19:36;11.67;;;10.67;;
27145;SDS011;17980;51.744;7.190;2023-05-08T07:22:03;11.63;;;10.70;;
27145;SDS011;17980;51.744;7.190;2023-05-08T07:24:40;11.20;;;10.30;;
27145;SDS011;17980;51.744;7.190;2023-05-08T07:27:07;12.37;;;11.27;;
27145;SDS011;17980;51.744;7.190;2023-05-08T07:29:35;12.33;;;11.30;;
27145;SDS011;17980;51.744;7.190;2023-05-08T07:32:02;12.27;;;10.93;;
27145;SDS011;17980;51.744;7.190;2023-05-08T07:34:42;12.17;;;10.97;;
27145;SDS011;17980;51.744;7.190;2023-05-08T07:37:09;11.40;;;10.50;;
27145;SDS011;17980;51.744;7.190;2023-05-08T07:39:37;11.10;;;10.30;;
27145;SDS011;17980;51.744;7.190;2023-05-08T07:42:04;11.47;;;10.33;;
27145;SDS011;17980;51.744;7.190;2023-05-08T07:44:41;11.40;;;10.50;;
27145;SDS011;17980;51.744;7.190;2023-05-08T07:49:44;11.40;;;10.17;;
27145;SDS011;17980;51.744;7.190;2023-05-08T07:52:12;10.53;;;9.63;;
27145;SDS011;17980;51.744;7.190;2023-05-08T07:54:49;10.17;;;9.23;;
27145;SDS011;17980;51.744;7.190;2023-05-08T07:57:16;10.50;;;9.50;;
27145;SDS011;17980;51.744;7.190;2023-05-08T07:59:43;9.50;;;8.70;;
27145;SDS011;17980;51.744;7.190;2023-05-08T08:02:11;9.50;;;8.80;;
27145;SDS011;17980;51.744;7.190;2023-05-08T08:04:47;10.03;;;9.13;;
27145;SDS011;17980;51.744;7.190;2023-05-08T08:07:15;10.33;;;9.47;;
27145;SDS011;17980;51.744;7.190;2023-05-08T08:09:42;9.77;;;9.07;;
27145;SDS011;17980;51.744;7.190;2023-05-08T08:12:10;12.23;;;11.17;;
27145;SDS011;17980;51.744;7.190;2023-05-08T08:14:46;10.93;;;9.83;;
27145;SDS011;17980;51.744;7.190;2023-05-08T08:17:14;10.60;;;9.80;;
27145;SDS011;17980;51.744;7.190;2023-05-08T08:19:41;10.97;;;9.90;;
27145;SDS011;17980;51.744;7.190;2023-05-08T08:22:08;10.43;;;9.47;;
27145;SDS011;17980;51.744;7.190;2023-05-08T08:24:45;11.30;;;9.17;;
27145;SDS011;17980;51.744;7.190;2023-05-08T08:27:12;9.53;;;8.83;;
27145;SDS011;17980;51.744;7.190;2023-05-08T08:29:40;8.87;;;8.17;;
27145;SDS011;17980;51.744;7.190;2023-05-08T08:32:07;8.17;;;7.47;;
27145;SDS011;17980;51.744;7.190;2023-05-08T08:34:44;9.57;;;7.97;;
27145;SDS011;17980;51.744;7.190;2023-05-08T08:37:11;8.87;;;8.17;;
27145;SDS011;17980;51.744;7.190;2023-05-08T08:39:38;8.00;;;7.30;;
27145;SDS011;17980;51.744;7.190;2023-05-08T08:42:15;8.23;;;7.43;;
27145;SDS011;17980;51.744;7.190;2023-05-08T08:44:42;8.57;;;7.97;;
27145;SDS011;17980;51.744;7.190;2023-05-08T08:47:19;8.17;;;7.53;;
27145;SDS011;17980;51.744;7.190;2023-05-08T08:49:50;8.73;;;7.93;;
27145;SDS011;17980;51.744;7.190;2023-05-08T08:52:30;8.73;;;7.83;;
27145;SDS011;17980;51.744;7.190;2023-05-08T08:54:59;9.97;;;8.67;;
27145;SDS011;17980;51.744;7.190;2023-05-08T08:57:31;9.17;;;7.60;;
27145;SDS011;17980;51.744;7.190;2023-05-08T09:00:09;7.90;;;7.20;;
27145;SDS011;17980;51.744;7.190;2023-05-08T09:02:38;8.50;;;7.00;;
27145;SDS011;17980;51.744;7.190;2023-05-08T09:05:15;12.57;;;6.73;;
27145;SDS011;17980;51.744;7.190;2023-05-08T09:07:43;8.53;;;7.40;;
27145;SDS011;17980;51.744;7.190;2023-05-08T09:10:11;9.27;;;7.23;;
27145;SDS011;17980;51.744;7.190;2023-05-08T09:12:48;7.77;;;6.90;;
27145;SDS011;17980;51.744;7.190;2023-05-08T09:15:16;7.33;;;6.67;;
27145;SDS011;17980;51.744;7.190;2023-05-08T09:17:43;7.23;;;6.53;;
27145;SDS011;17980;51.744;7.190;2023-05-08T09:20:12;7.33;;;6.70;;
27145;SDS011;17980;51.744;7.190;2023-05-08T09:22:49;6.40;;;5.80;;
27145;SDS011;17980;51.744;7.190;2023-05-08T09:27:53;5.97;;;5.40;;
27145;SDS011;17980;51.744;7.190;2023-05-08T09:33:01;5.40;;;4.90;;
27145;SDS011;17980;51.744;7.190;2023-05-08T09:35:34;6.13;;;5.63;;
27145;SDS011;17980;51.744;7.190;2023-05-08T09:38:26;5.43;;;5.03;;
27145;SDS011;17980;51.744;7.190;2023-05-08T09:41:05;6.30;;;5.40;;
27145;SDS011;17980;51.744;7.190;2023-05-08T09:43:43;4.83;;;3.70;;
27145;SDS011;17980;51.744;7.190;2023-05-08T09:46:19;4.17;;;3.80;;
27145;SDS011;17980;51.744;7.190;2023-05-08T09:48:48;8.13;;;4.30;;
27145;SDS011;17980;51.744;7.190;2023-05-08T09:51:16;6.47;;;4.50;;
27145;SDS011;17980;51.744;7.190;2023-05-08T09:53:54;5.27;;;4.90;;
27145;SDS011;17980;51.744;7.190;2023-05-08T09:56:28;7.57;;;4.67;;
27145;SDS011;17980;51.744;7.190;2023-05-08T09:58:59;6.23;;;3.63;;
27145;SDS011;17980;51.744;7.190;2023-05-08T10:01:29;5.67;;;2.70;;
27145;SDS011;17980;51.744;7.190;2023-05-08T10:04:06;2.50;;;2.30;;
27145;SDS011;17980;51.744;7.190;2023-05-08T10:06:34;2.27;;;1.97;;
27145;SDS011;17980;51.744;7.190;2023-05-08T10:09:11;2.73;;;2.50;;
27145;SDS011;17980;51.744;7.190;2023-05-08T10:11:40;7.40;;;2.67;;
27145;SDS011;17980;51.744;7.190;2023-05-08T10:14:17;5.50;;;3.17;;
27145;SDS011;17980;51.744;7.190;2023-05-08T10:16:45;7.07;;;3.00;;
27145;SDS011;17980;51.744;7.190;2023-05-08T10:19:15;4.60;;;3.27;;
27145;SDS011;17980;51.744;7.190;2023-05-08T10:21:45;3.37;;;2.53;;
27145;SDS011;17980;51.744;7.190;2023-05-08T10:24:25;7.50;;;2.73;;
27145;SDS011;17980;51.744;7.190;2023-05-08T10:26:56;2.53;;;2.33;;
27145;SDS011;17980;51.744;7.190;2023-05-08T10:29:27;2.60;;;1.93;;
27145;SDS011;17980;51.744;7.190;2023-05-08T10:32:07;3.70;;;3.07;;
27145;SDS011;17980;51.744;7.190;2023-05-08T10:37:11;4.63;;;2.40;;
27145;SDS011;17980;51.744;7.190;2023-05-08T10:39:39;2.27;;;2.07;;
27145;SDS011;17980;51.744;7.190;2023-05-08T10:42:08;3.47;;;2.13;;
27145;SDS011;17980;51.744;7.190;2023-05-08T10:44:45;2.77;;;2.33;;
27145;SDS011;17980;51.744;7.190;2023-05-08T10:47:14;4.23;;;2.23;;
27145;SDS011;17980;51.744;7.190;2023-05-08T10:49:56;2.37;;;1.70;;
27145;SDS011;17980;51.744;7.190;2023-05-08T10:55:05;4.33;;;1.20;;
27145;SDS011;17980;51.744;7.190;2023-05-08T10:58:05;6.73;;;1.20;;
27145;SDS011;17980;51.744;7.190;2023-05-08T11:03:51;0.70;;;0.70;;
27145;SDS011;17980;51.744;7.190;2023-05-08T11:09:19;1.13;;;0.70;;
27145;SDS011;17980;51.744;7.190;2023-05-08T11:11:50;1.33;;;0.73;;
27145;SDS011;17980;51.744;7.190;2023-05-08T11:14:30;1.93;;;0.80;;
27145;SDS011;17980;51.744;7.190;2023-05-08T11:17:05;1.10;;;0.60;;
27145;SDS011;17980;51.744;7.190;2023-05-08T11:19:33;0.60;;;0.60;;
27145;SDS011;17980;51.744;7.190;2023-05-08T11:25:01;2.30;;;0.80;;
27145;SDS011;17980;51.744;7.190;2023-05-08T11:27:35;0.60;;;0.60;;
27145;SDS011;17980;51.744;7.190;2023-05-08T11:30:20;2.00;;;0.90;;
27145;SDS011;17980;51.744;7.190;2023-05-08T11:32:56;2.97;;;0.90;;
27145;SDS011;17980;51.744;7.190;2023-05-08T11:35:41;0.70;;;0.50;;
27145;SDS011;17980;51.744;7.190;2023-05-08T11:38:11;3.40;;;0.60;;
27145;SDS011;17980;51.744;7.190;2023-05-08T11:46:57;0.97;;;0.60;;
27145;SDS011;17980;51.744;7.190;2023-05-08T11:49:29;3.03;;;0.87;;
27145;SDS011;17980;51.744;7.190;2023-05-08T11:52:06;0.77;;;0.77;;
27145;SDS011;17980;51.744;7.190;2023-05-08T11:54:33;0.73;;;0.70;;
27145;SDS011;17980;51.744;7.190;2023-05-08T11:57:10;4.20;;;0.70;;
27145;SDS011;17980;51.744;7.190;2023-05-08T11:59:40;1.80;;;0.90;;
27145;SDS011;17980;51.744;7.190;2023-05-08T12:02:17;1.87;;;0.80;;
27145;SDS011;17980;51.744;7.190;2023-05-08T12:04:45;0.80;;;0.70;;
27145;SDS011;17980;51.744;7.190;2023-05-08T12:07:22;0.77;;;0.77;;
27145;SDS011;17980;51.744;7.190;2023-05-08T12:09:49;3.53;;;0.80;;
27145;SDS011;17980;51.744;7.190;2023-05-08T12:12:35;1.07;;;0.97;;
27145;SDS011;17980;51.744;7.190;2023-05-08T12:15:05;1.00;;;0.90;;
27145;SDS011;17980;51.744;7.190;2023-05-08T12:17:43;1.03;;;0.80;;
27145;SDS011;17980;51.744;7.190;2023-05-08T12:20:11;1.00;;;0.90;;
27145;SDS011;17980;51.744;7.190;2023-05-08T12:22:50;2.60;;;0.97;;
27145;SDS011;17980;51.744;7.190;2023-05-08T12:25:18;0.80;;;0.80;;
27145;SDS011;17980;51.744;7.190;2023-05-08T12:27:45;2.30;;;0.90;;
27145;SDS011;17980;51.744;7.190;2023-05-08T12:30:13;1.87;;;1.10;;
27145;SDS011;17980;51.744;7.190;2023-05-08T12:32:50;0.90;;;0.90;;
27145;SDS011;17980;51.744;7.190;2023-05-08T12:35:18;1.07;;;0.97;;
27145;SDS011;17980;51.744;7.190;2023-05-08T12:37:46;2.20;;;0.80;;
27145;SDS011;17980;51.744;7.190;2023-05-08T12:40:23;1.13;;;0.60;;
27145;SDS011;17980;51.744;7.190;2023-05-08T12:43:01;0.90;;;0.60;;
27145;SDS011;17980;51.744;7.190;2023-05-08T12:45:29;1.10;;;1.00;;
27145;SDS011;17980;51.744;7.190;2023-05-08T12:48:07;2.50;;;1.30;;
27145;SDS011;17980;51.744;7.190;2023-05-08T12:50:36;1.20;;;1.10;;
27145;SDS011;17980;51.744;7.190;2023-05-08T12:53:14;2.83;;;1.17;;
27145;SDS011;17980;51.744;7.190;2023-05-08T12:55:49;3.90;;;1.30;;
27145;SDS011;17980;51.744;7.190;2023-05-08T12:58:17;1.10;;;1.00;;
27145;SDS011;17980;51.744;7.190;2023-05-08T13:01:04;1.73;;;0.90;;
27145;SDS011;17980;51.744;7.190;2023-05-08T13:03:35;1.00;;;0.90;;
27145;SDS011;17980;51.744;7.190;2023-05-08T13:06:18;3.63;;;1.00;;
27145;SDS011;17980;51.744;7.190;2023-05-08T13:08:51;4.20;;;1.37;;
27145;SDS011;17980;51.744;7.190;2023-05-08T13:11:28;1.20;;;1.00;;
27145;SDS011;17980;51.744;7.190;2023-05-08T13:13:56;7.17;;;1.40;;
27145;SDS011;17980;51.744;7.190;2023-05-08T13:16:41;1.20;;;1.10;;
27145;SDS011;17980;51.744;7.190;2023-05-08T13:19:19;6.50;;;1.47;;
27145;SDS011;17980;51.744;7.190;2023-05-08T13:21:46;5.57;;;1.20;;
27145;SDS011;17980;51.744;7.190;2023-05-08T13:24:23;2.17;;;1.10;;
27145;SDS011;17980;51.744;7.190;2023-05-08T13:26:51;3.80;;;1.00;;
27145;SDS011;17980;51.744;7.190;2023-05-08T13:29:28;1.27;;;1.17;;
27145;SDS011;17980;51.744;7.190;2023-05-08T13:34:31;2.33;;;1.63;;
27145;SDS011;17980;51.744;7.190;2023-05-08T13:39:35;2.47;;;1.40;;
27145;SDS011;17980;51.744;7.190;2023-05-08T13:42:02;2.77;;;1.20;;
27145;SDS011;17980;51.744;7.190;2023-05-08T13:44:39;2.43;;;1.03;;
27145;SDS011;17980;51.744;7.190;2023-05-08T13:47:07;1.30;;;1.10;;
27145;SDS011;17980;51.744;7.190;2023-05-08T13:52:11;2.00;;;1.10;;
27145;SDS011;17980;51.744;7.190;2023-05-08T13:54:39;2.00;;;0.77;;
27145;SDS011;17980;51.744;7.190;2023-05-08T13:57:06;2.67;;;1.30;;
27145;SDS011;17980;51.744;7.190;2023-05-08T13:59:33;2.63;;;0.90;;
27145;SDS011;17980;51.744;7.190;2023-05-08T14:02:13;2.77;;;0.80;;
27145;SDS011;17980;51.744;7.190;2023-05-08T14:04:40;0.80;;;0.80;;
27145;SDS011;17980;51.744;7.190;2023-05-08T14:07:07;4.83;;;1.03;;
27145;SDS011;17980;51.744;7.190;2023-05-08T14:09:51;0.97;;;0.90;;
27145;SDS011;17980;51.744;7.190;2023-05-08T14:12:19;1.00;;;1.00;;
27145;SDS011;17980;51.744;7.190;2023-05-08T14:14:58;2.80;;;1.00;;
27145;SDS011;17980;51.744;7.190;2023-05-08T14:17:25;1.93;;;0.97;;
27145;SDS011;17980;51.744;7.190;2023-05-08T14:19:52;0.80;;;0.80;;
27145;SDS011;17980;51.744;7.190;2023-05-08T14:22:29;0.90;;;0.83;;
27145;SDS011;17980;51.744;7.190;2023-05-08T14:24:57;2.50;;;1.10;;
27145;SDS011;17980;51.744;7.190;2023-05-08T14:27:34;3.00;;;1.00;;
27145;SDS011;17980;51.744;7.190;2023-05-08T14:30:01;0.80;;;0.80;;
27145;SDS011;17980;51.744;7.190;2023-05-08T14:32:38;1.50;;;1.00;;
27145;SDS011;17980;51.744;7.190;2023-05-08T14:35:06;4.13;;;1.33;;
27145;SDS011;17980;51.744;7.190;2023-05-08T14:37:44;1.43;;;1.23;;
27145;SDS011;17980;51.744;7.190;2023-05-08T14:40:11;1.43;;;0.90;;
27145;SDS011;17980;51.744;7.190;2023-05-08T14:42:48;3.43;;;1.23;;
27145;SDS011;17980;51.744;7.190;2023-05-08T14:45:15;2.00;;;1.30;;
27145;SDS011;17980;51.744;7.190;2023-05-08T14:47:43;3.23;;;1.37;;
27145;SDS011;17980;51.744;7.190;2023-05-08T14:50:21;1.40;;;1.30;;
27145;SDS011;17980;51.744;7.190;2023-05-08T14:52:48;2.60;;;1.30;;
27145;SDS011;17980;51.744;7.190;2023-05-08T14:55:16;3.20;;;1.30;;
27145;SDS011;17980;51.744;7.190;2023-05-08T15:00:21;3.57;;;1.90;;
27145;SDS011;17980;51.744;7.190;2023-05-08T15:02:48;2.10;;;1.90;;
27145;SDS011;17980;51.744;7.190;2023-05-08T15:05:15;4.00;;;1.97;;
27145;SDS011;17980;51.744;7.190;2023-05-08T15:07:52;2.33;;;2.13;;
27145;SDS011;17980;51.744;7.190;2023-05-08T15:10:20;2.23;;;2.03;;
27145;SDS011;17980;51.744;7.190;2023-05-08T15:12:47;2.17;;;1.97;;
27145;SDS011;17980;51.744;7.190;2023-05-08T15:15:24;1.70;;;1.60;;
27145;SDS011;17980;51.744;7.190;2023-05-08T15:17:52;3.83;;;2.67;;
27145;SDS011;17980;51.744;7.190;2023-05-08T15:20:19;4.20;;;2.60;;
27145;SDS011;17980;51.744;7.190;2023-05-08T15:22:46;5.00;;;4.17;;
27145;SDS011;17980;51.744;7.190;2023-05-08T15:25:23;5.27;;;4.87;;
27145;SDS011;17980;51.744;7.190;2023-05-08T15:27:50;6.33;;;4.43;;
27145;SDS011;17980;51.744;7.190;2023-05-08T15:30:18;5.10;;;4.60;;
27145;SDS011;17980;51.744;7.190;2023-05-08T15:32:46;6.23;;;4.77;;
27145;SDS011;17980;51.744;7.190;2023-05-08T15:35:23;5.30;;;4.80;;
27145;SDS011;17980;51.744;7.190;2023-05-08T15:37:50;5.57;;;5.00;;
27145;SDS011;17980;51.744;7.190;2023-05-08T15:40:17;4.77;;;4.37;;
27145;SDS011;17980;51.744;7.190;2023-05-08T15:42:45;4.17;;;3.80;;
27145;SDS011;17980;51.744;7.190;2023-05-08T15:45:21;4.93;;;4.17;;
27145;SDS011;17980;51.744;7.190;2023-05-08T15:47:49;5.00;;;4.00;;
27145;SDS011;17980;51.744;7.190;2023-05-08T15:50:16;5.63;;;5.07;;
27145;SDS011;17980;51.744;7.190;2023-05-08T15:52:44;5.10;;;4.70;;
27145;SDS011;17980;51.744;7.190;2023-05-08T15:55:20;6.30;;;5.53;;
27145;SDS011;17980;51.744;7.190;2023-05-08T15:57:48;7.00;;;5.77;;
27145;SDS011;17980;51.744;7.190;2023-05-08T16:00:25;6.47;;;5.90;;
27145;SDS011;17980;51.744;7.190;2023-05-08T16:02:52;8.80;;;5.50;;
27145;SDS011;17980;51.744;7.190;2023-05-08T16:05:19;5.83;;;5.10;;